createdAt,value
2022-09-15T00:01:13.895Z,59.20
2022-09-15T00:03:15.851Z,59.20
2022-09-15T00:05:18.752Z,59.20
2022-09-15T00:07:20.732Z,59.30
2022-09-15T00:09:22.314Z,59.30
2022-09-15T00:11:30.483Z,59.30
2022-09-15T00:13:33.288Z,59.30
2022-09-15T00:15:34.871Z,59.30
2022-09-15T00:17:36.504Z,59.30
2022-09-15T00:19:38.196Z,59.30
2022-09-15T00:21:41.536Z,59.30
2022-09-15T00:23:43.535Z,59.20
2022-09-15T00:25:51.416Z,59.20
2022-09-15T00:27:53.006Z,59.20
2022-09-15T00:29:54.606Z,59.30
2022-09-15T00:31:56.472Z,59.30
2022-09-15T00:34:02.453Z,59.20
2022-09-15T00:36:06.395Z,59.10
2022-09-15T00:38:09.166Z,59.10
2022-09-15T00:40:10.969Z,59.80
2022-09-15T00:42:20.948Z,59.00
2022-09-15T00:44:22.535Z,58.90
2022-09-15T00:46:30.303Z,59.00
2022-09-15T00:48:32.295Z,59.00
2022-09-15T00:50:34.975Z,58.90
2022-09-15T00:52:47.451Z,58.90
2022-09-15T00:55:07.307Z,58.90
2022-09-15T00:57:35.622Z,58.90
2022-09-15T00:59:40.051Z,58.90
2022-09-15T01:01:43.810Z,58.90
2022-09-15T01:03:45.761Z,58.90
2022-09-15T01:05:53.664Z,58.90
2022-09-15T01:08:10.628Z,59.00
2022-09-15T01:10:22.450Z,58.90
2022-09-15T01:12:25.760Z,58.90
2022-09-15T01:14:27.408Z,58.90
2022-09-15T01:16:43.968Z,58.90
2022-09-15T01:19:04.432Z,58.90
2022-09-15T01:21:11.790Z,58.90
2022-09-15T01:23:27.196Z,58.90
2022-09-15T01:25:43.888Z,59.00
2022-09-15T01:28:35.992Z,58.90
2022-09-15T01:30:46.921Z,58.90
2022-09-15T01:33:04.955Z,58.80
2022-09-15T01:35:43.166Z,58.90
2022-09-15T01:37:56.687Z,58.80
2022-09-15T01:40:01.775Z,58.90
2022-09-15T01:42:07.075Z,58.90
2022-09-15T01:44:16.500Z,58.90
2022-09-15T01:46:24.098Z,58.90
2022-09-15T01:48:27.295Z,58.80
2022-09-15T01:50:33.739Z,58.90
2022-09-15T01:52:37.136Z,58.80
2022-09-15T01:54:45.796Z,58.80
2022-09-15T01:56:47.627Z,58.90
2022-09-15T01:58:51.179Z,58.80
2022-09-15T02:01:14.573Z,58.80
2022-09-15T02:03:35.039Z,58.70
2022-09-15T02:05:51.795Z,58.70
2022-09-15T02:08:09.677Z,58.60
2022-09-15T02:10:17.028Z,58.60
2022-09-15T02:12:33.952Z,58.60
2022-09-15T02:14:58.685Z,58.60
2022-09-15T02:17:01.601Z,58.50
2022-09-15T02:19:12.736Z,58.40
2022-09-15T02:21:29.605Z,58.50
2022-09-15T02:23:35.251Z,58.40
2022-09-15T02:25:44.854Z,58.40
2022-09-15T02:27:51.989Z,58.40
2022-09-15T02:29:57.955Z,58.40
2022-09-15T02:32:06.801Z,58.40
2022-09-15T02:34:19.440Z,58.40
2022-09-15T02:36:21.630Z,58.40
2022-09-15T02:38:23.733Z,58.40
2022-09-15T02:40:25.694Z,58.30
2022-09-15T02:42:29.654Z,58.20
2022-09-15T02:44:31.740Z,58.10
2022-09-15T02:46:34.005Z,58.00
2022-09-15T02:48:36.028Z,58.00
2022-09-15T02:50:38.548Z,58.00
2022-09-15T02:52:40.210Z,58.00
2022-09-15T02:54:41.936Z,57.90
2022-09-15T02:56:43.553Z,58.00
2022-09-15T02:58:45.412Z,58.00
2022-09-15T03:00:47.058Z,58.00
2022-09-15T03:02:51.235Z,58.00
2022-09-15T03:04:52.831Z,57.90
2022-09-15T03:06:54.418Z,58.00
2022-09-15T03:08:58.694Z,57.90
2022-09-15T03:11:00.290Z,57.90
2022-09-15T03:13:01.924Z,57.80
2022-09-15T03:15:03.774Z,57.90
2022-09-15T03:17:05.648Z,57.80
2022-09-15T03:19:07.240Z,57.70
2022-09-15T03:21:11.783Z,57.70
2022-09-15T03:23:13.619Z,57.80
2022-09-15T03:25:15.761Z,57.70
2022-09-15T03:27:17.757Z,57.50
2022-09-15T03:29:19.328Z,57.70
2022-09-15T03:31:21.368Z,57.70
2022-09-15T03:33:24.368Z,58.40
2022-09-15T03:35:25.975Z,57.70
2022-09-15T03:37:27.796Z,57.60
2022-09-15T03:39:29.444Z,57.60
2022-09-15T03:41:31.046Z,57.70
2022-09-15T03:43:32.767Z,57.50
2022-09-15T03:45:34.435Z,57.60
2022-09-15T03:47:36.096Z,57.60
2022-09-15T03:49:37.946Z,57.70
2022-09-15T03:51:39.546Z,57.30
2022-09-15T03:53:42.066Z,57.30
2022-09-15T03:55:45.392Z,57.60
2022-09-15T03:57:46.965Z,57.70
2022-09-15T03:59:48.643Z,57.50
2022-09-15T04:01:50.770Z,57.30
2022-09-15T04:03:52.532Z,57.30
2022-09-15T04:05:54.142Z,57.50
2022-09-15T04:07:55.943Z,57.60
2022-09-15T04:09:57.539Z,57.50
2022-09-15T04:11:59.168Z,57.60
2022-09-15T04:14:00.808Z,57.30
2022-09-15T04:16:08.566Z,57.20
2022-09-15T04:18:10.727Z,57.40
2022-09-15T04:20:12.576Z,57.50
2022-09-15T04:22:17.799Z,57.50
2022-09-15T04:24:19.783Z,57.40
2022-09-15T04:26:35.387Z,57.40
2022-09-15T04:28:38.128Z,57.40
2022-09-15T04:30:39.753Z,57.30
2022-09-15T04:32:41.346Z,57.20
2022-09-15T04:34:42.933Z,57.20
2022-09-15T04:36:44.616Z,57.20
2022-09-15T04:38:47.173Z,57.20
2022-09-15T04:40:49.148Z,57.10
2022-09-15T04:42:50.752Z,57.00
2022-09-15T04:44:52.368Z,57.10
2022-09-15T04:46:54.278Z,57.10
2022-09-15T04:48:56.203Z,57.10
2022-09-15T04:51:02.447Z,57.00
2022-09-15T04:53:04.073Z,56.90
2022-09-15T04:55:05.988Z,56.60
2022-09-15T04:57:07.624Z,56.40
2022-09-15T04:59:14.201Z,56.60
2022-09-15T05:01:24.800Z,56.50
2022-09-15T05:03:26.451Z,56.80
2022-09-15T05:05:28.028Z,56.70
2022-09-15T05:07:29.641Z,56.80
2022-09-15T05:09:31.291Z,56.70
2022-09-15T05:11:32.968Z,56.80
2022-09-15T05:13:35.249Z,56.70
2022-09-15T05:15:36.877Z,56.60
2022-09-15T05:17:38.559Z,56.80
2022-09-15T05:19:40.217Z,56.90
2022-09-15T05:21:41.902Z,56.50
2022-09-15T05:23:43.846Z,56.50
2022-09-15T05:25:57.641Z,56.20
2022-09-15T05:27:59.248Z,56.20
2022-09-15T05:30:31.858Z,56.60
2022-09-15T05:32:22.420Z,56.10
2022-09-15T05:34:24.027Z,56.10
2022-09-15T05:36:25.957Z,56.30
2022-09-15T05:38:29.887Z,56.50
2022-09-15T05:40:33.081Z,56.30
2022-09-15T05:42:35.372Z,56.60
2022-09-15T05:44:37.134Z,56.50
2022-09-15T05:46:38.845Z,56.50
2022-09-15T05:48:41.472Z,56.50
2022-09-15T05:50:52.431Z,56.40
2022-09-15T05:52:54.043Z,56.40
2022-09-15T05:54:58.967Z,57.00
2022-09-15T05:57:01.086Z,56.70
2022-09-15T05:59:02.770Z,56.70
2022-09-15T06:01:07.663Z,56.70
2022-09-15T06:03:15.375Z,56.80
2022-09-15T06:05:17.099Z,56.50
2022-09-15T06:07:18.791Z,56.40
2022-09-15T06:09:20.574Z,56.40
2022-09-15T06:11:25.176Z,56.40
2022-09-15T06:13:26.742Z,56.30
2022-09-15T06:15:28.330Z,56.40
2022-09-15T06:17:32.866Z,56.30
2022-09-15T06:19:34.489Z,56.40
2022-09-15T06:21:36.096Z,56.30
2022-09-15T06:23:38.393Z,56.30
2022-09-15T06:25:39.990Z,56.30
2022-09-15T06:27:42.027Z,56.30
2022-09-15T06:29:43.629Z,56.30
2022-09-15T06:31:45.354Z,56.30
2022-09-15T06:33:53.265Z,56.30
2022-09-15T06:35:55.099Z,56.20
2022-09-15T06:37:56.681Z,56.30
2022-09-15T06:39:58.343Z,56.30
2022-09-15T06:42:03.239Z,56.30
2022-09-15T06:44:06.417Z,56.30
2022-09-15T06:46:28.615Z,56.30
2022-09-15T06:48:32.091Z,56.40
2022-09-15T06:50:34.044Z,56.30
2022-09-15T06:52:36.166Z,56.90
2022-09-15T06:54:38.150Z,57.00
2022-09-15T06:56:39.942Z,56.40
2022-09-15T06:58:43.130Z,56.40
2022-09-15T07:00:44.747Z,56.40
2022-09-15T07:02:49.781Z,56.40
2022-09-15T07:04:51.488Z,56.60
2022-09-15T07:06:53.140Z,56.60
2022-09-15T07:08:54.781Z,56.60
2022-09-15T07:10:56.690Z,56.70
2022-09-15T07:12:58.937Z,56.80
2022-09-15T07:15:00.584Z,56.80
2022-09-15T07:17:02.819Z,56.80
2022-09-15T07:19:05.783Z,56.80
2022-09-15T07:21:11.499Z,56.90
2022-09-15T07:23:13.259Z,57.00
2022-09-15T07:25:14.976Z,57.10
2022-09-15T07:27:16.608Z,57.10
2022-09-15T07:29:18.195Z,57.00
2022-09-15T07:31:22.537Z,57.10
2022-09-15T07:33:24.201Z,57.20
2022-09-15T07:35:25.843Z,57.10
2022-09-15T07:37:27.475Z,57.20
2022-09-15T07:39:29.068Z,57.30
2022-09-15T07:41:31.561Z,57.30
2022-09-15T07:43:33.587Z,57.40
2022-09-15T07:45:36.085Z,57.40
2022-09-15T07:47:38.164Z,57.30
2022-09-15T07:49:39.839Z,57.30
2022-09-15T07:51:41.484Z,57.30
2022-09-15T07:53:44.308Z,57.30
2022-09-15T07:55:45.991Z,57.50
2022-09-15T07:57:47.593Z,57.40
2022-09-15T07:59:49.239Z,57.50
2022-09-15T08:01:51.159Z,57.50
2022-09-15T08:03:53.006Z,57.50
2022-09-15T08:06:02.610Z,57.60
2022-09-15T08:08:04.578Z,57.60
2022-09-15T08:10:06.769Z,57.60
2022-09-15T08:12:09.048Z,57.60
2022-09-15T08:14:10.925Z,57.70
2022-09-15T08:16:18.510Z,57.80
2022-09-15T08:18:20.197Z,57.70
2022-09-15T08:20:21.843Z,57.80
2022-09-15T08:22:23.537Z,57.80
2022-09-15T08:24:25.712Z,57.80
2022-09-15T08:26:28.724Z,57.80
2022-09-15T08:28:30.337Z,57.80
2022-09-15T08:30:32.297Z,57.90
2022-09-15T08:32:33.908Z,57.90
2022-09-15T08:34:35.536Z,57.90
2022-09-15T08:36:37.125Z,57.90
2022-09-15T08:38:40.577Z,57.90
2022-09-15T08:40:45.323Z,57.90
2022-09-15T08:42:51.147Z,58.00
2022-09-15T08:45:09.161Z,57.90
2022-09-15T08:47:16.268Z,58.10
2022-09-15T08:49:51.626Z,58.20
2022-09-15T08:51:58.024Z,58.10
2022-09-15T08:54:11.564Z,58.20
2022-09-15T08:56:20.637Z,58.30
2022-09-15T08:58:25.948Z,58.10
2022-09-15T09:00:28.063Z,58.20
2022-09-15T09:03:09.810Z,58.30
2022-09-15T09:05:29.247Z,58.30
2022-09-15T09:07:42.489Z,58.30
2022-09-15T09:09:59.212Z,58.30
2022-09-15T09:12:03.585Z,58.40
2022-09-15T09:14:33.750Z,58.40
2022-09-15T09:16:59.071Z,58.40
2022-09-15T09:19:20.841Z,58.50
2022-09-15T09:21:27.205Z,58.50
2022-09-15T09:23:32.367Z,58.40
2022-09-15T09:25:36.032Z,58.40
2022-09-15T09:27:38.872Z,58.50
2022-09-15T09:29:49.502Z,58.50
2022-09-15T09:31:54.309Z,58.50
2022-09-15T09:34:10.780Z,58.60
2022-09-15T09:36:12.999Z,58.80
2022-09-15T09:38:26.364Z,58.80
2022-09-15T09:40:31.215Z,58.80
2022-09-15T09:42:37.065Z,59.00
2022-09-15T09:44:40.463Z,59.00
2022-09-15T09:46:43.062Z,59.00
2022-09-15T09:49:00.821Z,59.50
2022-09-15T09:51:02.450Z,60.00
2022-09-15T09:53:36.543Z,60.30
2022-09-15T09:55:41.186Z,60.30
2022-09-15T09:57:42.790Z,60.40
2022-09-15T09:59:47.181Z,60.40
2022-09-15T10:02:11.846Z,60.40
2022-09-15T10:04:19.013Z,60.40
2022-09-15T10:06:26.859Z,60.70
2022-09-15T10:08:28.726Z,60.40
2022-09-15T10:10:32.262Z,60.60
2022-09-15T10:12:40.564Z,60.50
2022-09-15T10:14:42.972Z,60.50
2022-09-15T10:16:44.784Z,60.40
2022-09-15T10:18:54.012Z,60.50
2022-09-15T10:20:56.635Z,60.40
2022-09-15T10:23:27.612Z,60.30
2022-09-15T10:25:49.654Z,60.40
2022-09-15T10:28:16.013Z,60.20
2022-09-15T10:30:19.004Z,61.00
2022-09-15T10:32:29.306Z,60.20
2022-09-15T10:34:31.842Z,60.10
2022-09-15T10:36:33.553Z,60.00
2022-09-15T10:38:49.843Z,60.10
2022-09-15T10:41:00.845Z,60.10
2022-09-15T10:43:23.203Z,60.10
2022-09-15T10:45:37.974Z,60.10
2022-09-15T10:47:51.939Z,60.00
2022-09-15T10:50:13.519Z,60.10
2022-09-15T10:52:15.220Z,59.90
2022-09-15T10:54:34.143Z,60.00
2022-09-15T10:56:48.555Z,59.70
2022-09-15T10:59:27.467Z,59.70
2022-09-15T11:01:37.497Z,59.50
2022-09-15T11:04:13.195Z,59.40
2022-09-15T11:06:23.954Z,59.90
2022-09-15T11:08:54.569Z,59.60
2022-09-15T11:11:07.628Z,59.40
2022-09-15T11:13:18.196Z,59.00
2022-09-15T11:15:43.760Z,58.70
2022-09-15T11:17:59.667Z,58.70
2022-09-15T11:20:26.281Z,58.40
2022-09-15T11:22:47.279Z,58.50
2022-09-15T11:24:59.542Z,58.50
2022-09-15T11:27:04.758Z,58.10
2022-09-15T11:29:26.949Z,58.20
2022-09-15T11:31:34.305Z,57.80
2022-09-15T11:34:11.946Z,58.10
2022-09-15T11:36:18.227Z,57.70
2022-09-15T11:38:48.002Z,57.80
2022-09-15T11:41:05.215Z,58.10
2022-09-15T11:43:18.752Z,57.70
2022-09-15T11:45:30.375Z,57.60
2022-09-15T11:47:45.120Z,57.70
2022-09-15T11:49:58.336Z,57.70
2022-09-15T11:52:37.603Z,57.60
2022-09-15T11:55:11.508Z,57.50
2022-09-15T11:57:26.707Z,57.40
2022-09-15T11:59:54.728Z,57.40
2022-09-15T12:02:53.926Z,57.40
2022-09-15T12:05:07.564Z,57.80
2022-09-15T12:07:23.740Z,57.80
2022-09-15T12:09:25.653Z,57.60
2022-09-15T12:11:30.382Z,57.30
2022-09-15T12:13:32.045Z,55.80
2022-09-15T12:15:33.973Z,55.20
2022-09-15T12:17:43.604Z,55.60
2022-09-15T12:19:59.713Z,56.00
2022-09-15T12:22:11.877Z,56.50
2022-09-15T12:24:25.572Z,56.60
2022-09-15T12:26:28.798Z,56.80
2022-09-15T12:28:51.022Z,56.50
2022-09-15T12:31:14.988Z,55.30
2022-09-15T12:33:57.576Z,54.90
2022-09-15T12:36:32.969Z,55.60
2022-09-15T12:38:34.653Z,56.00
2022-09-15T12:40:39.907Z,56.20
2022-09-15T12:42:46.350Z,56.90
2022-09-15T12:45:02.096Z,57.10
2022-09-15T12:47:07.507Z,57.60
2022-09-15T12:49:17.877Z,58.00
2022-09-15T12:51:27.909Z,59.00
2022-09-15T12:53:37.437Z,59.50
2022-09-15T12:55:52.343Z,59.30
2022-09-15T12:58:07.059Z,59.40
2022-09-15T13:00:21.061Z,59.80
2022-09-15T13:02:42.621Z,59.50
2022-09-15T13:04:57.932Z,58.70
2022-09-15T13:07:20.910Z,58.30
2022-09-15T13:09:27.950Z,58.20
2022-09-15T13:11:38.464Z,58.10
2022-09-15T13:14:07.501Z,58.00
2022-09-15T13:16:15.121Z,58.60
2022-09-15T13:18:18.757Z,57.80
2022-09-15T13:20:29.725Z,57.60
2022-09-15T13:22:31.323Z,57.60
2022-09-15T13:25:14.656Z,57.40
2022-09-15T13:27:21.032Z,57.30
2022-09-15T13:29:24.336Z,57.30
2022-09-15T13:31:39.121Z,57.00
2022-09-15T13:39:33.738Z,56.70
2022-09-15T13:42:02.447Z,56.70
2022-09-15T13:44:42.261Z,56.70
2022-09-15T13:46:59.601Z,56.70
2022-09-15T13:49:18.588Z,56.70
2022-09-15T13:51:27.692Z,56.70
2022-09-15T13:53:44.751Z,56.60
2022-09-15T13:55:47.016Z,56.50
2022-09-15T14:00:22.849Z,56.40
2022-09-15T14:02:24.897Z,56.20
2022-09-15T14:04:30.846Z,56.20
2022-09-15T14:06:38.904Z,56.00
2022-09-15T14:08:42.031Z,56.20
2022-09-15T14:11:00.994Z,56.00
2022-09-15T14:13:03.132Z,55.80
2022-09-15T14:15:06.858Z,55.90
2022-09-15T14:17:43.788Z,55.80
2022-09-15T14:19:49.208Z,56.00
2022-09-15T14:21:53.819Z,55.80
2022-09-15T14:24:20.160Z,55.80
2022-09-15T14:26:26.342Z,55.60
2022-09-15T14:28:33.857Z,55.60
2022-09-15T14:30:36.101Z,55.40
2022-09-15T14:32:44.597Z,55.50
2022-09-15T14:37:05.405Z,55.40
2022-09-15T14:39:21.072Z,55.30
2022-09-15T14:41:22.665Z,55.30
2022-09-15T14:43:40.286Z,55.10
2022-09-15T14:48:08.966Z,55.00
2022-09-15T14:50:21.263Z,54.90
2022-09-15T14:52:33.736Z,55.00
2022-09-15T14:54:37.337Z,54.90
2022-09-15T14:56:42.453Z,54.80
2022-09-15T14:58:58.066Z,55.40
2022-09-15T15:01:21.358Z,54.60
2022-09-15T15:03:42.373Z,54.40
2022-09-15T15:06:29.426Z,54.20
2022-09-15T15:08:51.290Z,54.30
2022-09-15T15:10:53.217Z,54.30
2022-09-15T15:12:58.732Z,54.40
2022-09-15T15:15:00.907Z,54.10
2022-09-15T15:17:08.365Z,54.00
2022-09-15T15:19:48.780Z,54.00
2022-09-15T15:21:50.771Z,54.00
2022-09-15T15:23:53.543Z,54.00
2022-09-15T15:26:28.156Z,53.80
2022-09-15T15:28:34.150Z,53.90
2022-09-15T15:30:46.973Z,53.70
2022-09-15T15:32:48.719Z,53.50
2022-09-15T15:34:59.685Z,53.70
2022-09-15T15:37:06.106Z,53.50
2022-09-15T15:39:19.524Z,53.50
2022-09-15T15:41:42.010Z,53.50
2022-09-15T15:43:58.390Z,53.50
2022-09-15T15:46:03.315Z,53.80
2022-09-15T15:48:08.437Z,54.00
2022-09-15T15:50:18.989Z,53.60
2022-09-15T15:52:21.179Z,53.00
2022-09-15T15:54:23.858Z,52.80
2022-09-15T15:56:25.519Z,52.80
2022-09-15T15:58:27.520Z,52.30
2022-09-15T16:00:38.134Z,52.10
2022-09-15T16:02:39.883Z,51.90
2022-09-15T16:04:41.481Z,51.70
2022-09-15T16:06:44.898Z,51.90
2022-09-15T16:08:46.634Z,51.30
2022-09-15T16:10:50.588Z,51.10
2022-09-15T16:12:52.316Z,51.30
2022-09-15T16:14:54.246Z,50.90
2022-09-15T16:16:58.157Z,50.30
2022-09-15T16:18:59.791Z,50.40
2022-09-15T16:21:01.415Z,50.80
2022-09-15T16:23:03.452Z,50.60
2022-09-15T16:25:20.953Z,50.70
2022-09-15T16:27:22.565Z,50.70
2022-09-15T16:29:28.985Z,50.50
2022-09-15T16:31:31.172Z,50.80
2022-09-15T16:33:37.421Z,50.30
2022-09-15T16:36:09.090Z,50.50
2022-09-15T16:38:10.832Z,50.80
2022-09-15T16:40:12.482Z,50.80
2022-09-15T16:42:14.747Z,51.20
2022-09-15T16:44:18.571Z,50.70
2022-09-15T16:46:20.415Z,50.30
2022-09-15T16:48:22.183Z,50.30
2022-09-15T16:50:23.832Z,50.20
2022-09-15T16:52:25.467Z,50.10
2022-09-15T16:54:27.797Z,50.10
2022-09-15T16:56:29.417Z,50.00
2022-09-15T16:58:31.133Z,50.40
2022-09-15T17:00:36.078Z,50.10
2022-09-15T17:02:37.773Z,49.90
2022-09-15T17:04:39.434Z,50.00
2022-09-15T17:06:41.147Z,50.00
2022-09-15T17:08:43.209Z,50.50
2022-09-15T17:10:46.044Z,50.40
2022-09-15T17:12:47.872Z,50.20
2022-09-15T17:14:49.673Z,50.30
2022-09-15T17:16:52.892Z,50.10
2022-09-15T17:18:54.673Z,50.00
2022-09-15T17:20:56.771Z,50.10
2022-09-15T17:22:58.451Z,50.30
2022-09-15T17:25:00.043Z,50.30
2022-09-15T17:27:01.647Z,50.20
2022-09-15T17:29:03.291Z,50.50
2022-09-15T17:31:13.565Z,50.30
2022-09-15T17:33:16.249Z,50.30
2022-09-15T17:35:20.610Z,50.30
2022-09-15T17:37:22.189Z,50.20
2022-09-15T17:39:23.791Z,50.30
2022-09-15T17:41:25.407Z,50.10
2022-09-15T17:43:29.632Z,50.30
2022-09-15T17:45:36.320Z,50.10
2022-09-15T17:47:37.898Z,50.10
2022-09-15T17:49:39.742Z,50.20
2022-09-15T17:51:41.475Z,50.40
2022-09-15T17:53:45.035Z,50.20
2022-09-15T17:55:46.984Z,50.20
2022-09-15T17:57:49.820Z,50.50
2022-09-15T17:59:51.466Z,50.30
2022-09-15T18:01:53.142Z,50.20
2022-09-15T18:03:54.831Z,50.20
2022-09-15T18:05:58.428Z,50.90
2022-09-15T18:08:03.196Z,50.20
2022-09-15T18:10:05.284Z,50.20
2022-09-15T18:12:06.890Z,50.90
2022-09-15T18:14:09.328Z,50.40
2022-09-15T18:16:13.014Z,49.90
2022-09-15T18:18:19.586Z,49.90
2022-09-15T18:20:23.849Z,50.30
2022-09-15T18:22:25.488Z,50.40
2022-09-15T18:24:28.365Z,50.40
2022-09-15T18:26:29.983Z,51.00
2022-09-15T18:28:31.615Z,50.70
2022-09-15T18:30:40.572Z,50.90
2022-09-15T18:32:42.608Z,50.70
2022-09-15T18:34:44.440Z,51.00
2022-09-15T18:36:46.138Z,50.80
2022-09-15T18:38:47.795Z,51.10
2022-09-15T18:40:53.226Z,51.10
2022-09-15T18:42:56.477Z,50.80
2022-09-15T18:44:58.087Z,50.90
2022-09-15T18:46:59.714Z,51.60
2022-09-15T18:49:02.871Z,50.90
2022-09-15T18:51:08.184Z,50.90
2022-09-15T18:53:10.229Z,51.00
2022-09-15T18:55:16.733Z,51.20
2022-09-15T18:57:19.120Z,51.30
2022-09-15T18:59:20.707Z,51.40
2022-09-15T19:01:22.931Z,50.80
2022-09-15T19:03:24.660Z,50.80
2022-09-15T19:05:27.645Z,50.80
2022-09-15T19:07:29.288Z,50.80
2022-09-15T19:09:31.403Z,50.70
2022-09-15T19:11:34.732Z,50.90
2022-09-15T19:13:36.357Z,50.80
2022-09-15T19:15:41.615Z,50.90
2022-09-15T19:17:43.898Z,51.30
2022-09-15T19:19:46.334Z,51.30
2022-09-15T19:21:48.159Z,51.20
2022-09-15T19:23:49.776Z,50.90
2022-09-15T19:25:51.372Z,50.80
2022-09-15T19:27:52.983Z,50.80
2022-09-15T19:29:54.704Z,50.80
2022-09-15T19:31:56.303Z,50.80
2022-09-15T19:33:57.906Z,50.90
2022-09-15T19:36:24.524Z,51.00
2022-09-15T19:38:26.320Z,51.50
2022-09-15T19:40:27.987Z,50.70
2022-09-15T19:42:30.766Z,50.70
2022-09-15T19:44:32.959Z,51.00
2022-09-15T19:46:34.568Z,51.20
2022-09-15T19:48:39.838Z,51.90
2022-09-15T19:50:43.747Z,52.20
2022-09-15T19:52:45.603Z,52.30
2022-09-15T19:54:47.738Z,52.50
2022-09-15T19:56:49.812Z,52.60
2022-09-15T19:58:52.480Z,52.50
2022-09-15T20:00:55.745Z,52.60
2022-09-15T20:02:57.367Z,52.80
2022-09-15T20:04:58.975Z,52.80
2022-09-15T20:07:00.563Z,52.80
2022-09-15T20:09:03.009Z,53.00
2022-09-15T20:11:07.027Z,53.00
2022-09-15T20:13:08.616Z,53.10
2022-09-15T20:15:10.748Z,53.10
2022-09-15T20:17:12.406Z,53.10
2022-09-15T20:19:14.208Z,53.20
2022-09-15T20:21:32.653Z,53.20
2022-09-15T20:23:40.643Z,53.30
2022-09-15T20:25:42.451Z,53.30
2022-09-15T20:27:44.098Z,53.30
2022-09-15T20:29:45.684Z,53.30
2022-09-15T20:31:48.089Z,53.30
2022-09-15T20:33:51.779Z,53.40
2022-09-15T20:35:53.888Z,53.40
2022-09-15T20:37:55.490Z,53.40
2022-09-15T20:39:57.192Z,53.40
2022-09-15T20:41:58.854Z,53.40
2022-09-15T20:44:00.809Z,53.40
2022-09-15T20:46:04.865Z,53.40
2022-09-15T20:48:06.543Z,53.40
2022-09-15T20:50:08.426Z,53.40
2022-09-15T20:52:10.018Z,53.50
2022-09-15T20:54:11.655Z,53.50
2022-09-15T20:56:14.710Z,53.40
2022-09-15T20:58:16.659Z,53.40
2022-09-15T21:00:18.693Z,53.40
2022-09-15T21:02:20.401Z,53.40
2022-09-15T21:04:22.061Z,53.50
2022-09-15T21:06:26.936Z,53.50
2022-09-15T21:08:29.224Z,53.60
2022-09-15T21:10:31.123Z,53.50
2022-09-15T21:12:33.503Z,53.60
2022-09-15T21:14:35.117Z,53.70
2022-09-15T21:16:36.828Z,53.80
2022-09-15T21:18:39.754Z,53.70
2022-09-15T21:20:41.936Z,53.80
2022-09-15T21:22:43.547Z,53.90
2022-09-15T21:24:45.145Z,53.80
2022-09-15T21:27:05.498Z,54.00
2022-09-15T21:29:07.100Z,53.90
2022-09-15T21:31:17.666Z,54.00
2022-09-15T21:33:20.539Z,54.00
2022-09-15T21:35:22.142Z,53.90
2022-09-15T21:37:27.039Z,54.00
2022-09-15T21:39:28.643Z,54.00
2022-09-15T21:41:30.353Z,54.00
2022-09-15T21:43:37.176Z,53.90
2022-09-15T21:45:38.870Z,54.00
2022-09-15T21:47:40.581Z,53.90
2022-09-15T21:49:42.195Z,53.90
2022-09-15T21:51:43.919Z,54.00
2022-09-15T21:53:46.829Z,54.00
2022-09-15T21:55:52.240Z,54.00
2022-09-15T21:57:53.816Z,53.90
2022-09-15T21:59:55.413Z,53.90
2022-09-15T22:01:57.679Z,54.00
2022-09-15T22:04:02.149Z,54.00
2022-09-15T22:06:04.038Z,54.00
2022-09-15T22:08:05.662Z,54.00
2022-09-15T22:10:07.854Z,53.80
2022-09-15T22:12:10.485Z,54.60
2022-09-15T22:14:13.112Z,54.00
2022-09-15T22:16:17.611Z,54.00
2022-09-15T22:18:19.425Z,53.90
2022-09-15T22:20:21.173Z,53.90
2022-09-15T22:22:23.539Z,53.90
2022-09-15T22:24:25.183Z,53.90
2022-09-15T22:26:29.377Z,53.90
2022-09-15T22:28:31.776Z,53.90
2022-09-15T22:30:33.421Z,53.80
2022-09-15T22:32:35.172Z,53.70
2022-09-15T22:34:36.759Z,53.70
2022-09-15T22:36:38.684Z,53.60
2022-09-15T22:38:40.421Z,53.70
2022-09-15T22:40:42.036Z,53.80
2022-09-15T22:42:43.670Z,53.70
2022-09-15T22:44:45.892Z,53.60
2022-09-15T22:46:49.520Z,53.70
2022-09-15T22:48:51.144Z,53.80
2022-09-15T22:50:52.760Z,53.70
2022-09-15T22:52:55.712Z,53.70
2022-09-15T22:54:57.304Z,53.70
2022-09-15T22:56:58.952Z,53.70
2022-09-15T22:59:00.753Z,53.60
2022-09-15T23:01:08.015Z,53.70
2022-09-15T23:03:11.220Z,53.60
2022-09-15T23:05:13.237Z,53.60
2022-09-15T23:07:14.893Z,53.60
2022-09-15T23:09:16.524Z,53.60
2022-09-15T23:11:18.512Z,53.70
2022-09-15T23:13:20.280Z,53.60
2022-09-15T23:15:21.887Z,53.50
2022-09-15T23:17:24.000Z,53.60
2022-09-15T23:19:25.673Z,53.80
2022-09-15T23:21:28.226Z,53.70
2022-09-15T23:23:30.066Z,53.70
2022-09-15T23:25:31.773Z,53.80
2022-09-15T23:27:33.426Z,53.80
2022-09-15T23:29:35.031Z,53.80
2022-09-15T23:31:36.752Z,53.80
2022-09-15T23:33:39.322Z,53.80
2022-09-15T23:35:41.019Z,53.70
2022-09-15T23:37:42.627Z,53.80
2022-09-15T23:39:44.261Z,53.70
2022-09-15T23:41:45.844Z,53.60
2022-09-15T23:43:47.625Z,53.50
2022-09-15T23:45:51.053Z,53.60
2022-09-15T23:47:52.886Z,53.50
2022-09-15T23:49:54.516Z,53.50
2022-09-15T23:51:56.125Z,53.50
2022-09-15T23:53:57.837Z,53.40
2022-09-15T23:55:59.513Z,54.10
2022-09-15T23:58:01.252Z,53.40
